Time;durP1;ratioP1;P1;durP2;ratioP2;P2;SDS_P1;SDS_P2;PMS_P1;PMS_P2;Temp;Humidity;BMP_temperature;BMP_pressure;BME280_temperature;BME280_humidity;BME280_pressure;Samples;Min_cycle;Max_cycle;Signal;HPM_P1;HPM_P2
2021/10/27 06:58:32;;;;;;;29.00;18.47;;;13.20;98.30;;;;;;5105820;23;20471;-81
2021/10/27 07:00:38;;;;;;;33.70;18.87;;;13.20;98.30;;;;;;5153339;22;20428;-81
2021/10/27 07:03:04;;;;;;;29.03;18.77;;;13.20;98.30;;;;;;5255311;22;20442;-81
2021/10/27 07:05:24;;;;;;;36.17;19.87;;;13.20;98.30;;;;;;5259676;22;20433;-82
2021/10/27 07:16:59;;;;;;;30.93;20.27;;;13.20;98.30;;;;;;5224904;22;20449;-80
2021/10/27 07:19:02;;;;;;;28.67;18.37;;;13.20;98.30;;;;;;5250176;22;20427;-81
2021/10/27 07:21:05;;;;;;;32.30;18.63;;;13.20;98.30;;;;;;5258774;22;20505;-81
2021/10/27 07:23:10;;;;;;;31.90;19.50;;;13.20;98.30;;;;;;5247031;22;20474;-81
2021/10/27 07:25:14;;;;;;;29.13;18.70;;;13.20;98.30;;;;;;5250328;22;20475;-82
2021/10/27 07:27:18;;;;;;;28.17;17.20;;;13.20;98.30;;;;;;5248394;22;20442;-81
2021/10/27 07:29:22;;;;;;;30.03;19.70;;;13.20;98.30;;;;;;5254256;22;20479;-81
2021/10/27 07:31:27;;;;;;;31.87;19.80;;;13.20;98.30;;;;;;5253065;22;20424;-81
2021/10/27 07:33:33;;;;;;;28.13;18.83;;;13.20;98.30;;;;;;5253752;22;20445;-81
2021/10/27 07:35:41;;;;;;;28.60;18.80;;;13.20;98.30;;;;;;5255139;22;20505;-81
2021/10/27 07:42:32;;;;;;;30.13;19.90;;;13.30;98.30;;;;;;5253425;22;20771;-81
2021/10/27 07:44:35;;;;;;;22.97;16.63;;;13.30;98.30;;;;;;5245001;22;20429;-81
2021/10/27 07:46:40;;;;;;;31.73;17.93;;;13.30;98.30;;;;;;5251078;22;20448;-81
2021/10/27 07:48:44;;;;;;;29.37;18.40;;;13.30;98.30;;;;;;5243507;22;20426;-81
2021/10/27 07:50:47;;;;;;;29.50;17.30;;;13.30;98.30;;;;;;5245272;22;20427;-83
2021/10/27 07:52:51;;;;;;;28.47;17.60;;;13.30;98.30;;;;;;5252769;22;20417;-80
2021/10/27 07:54:54;;;;;;;34.90;18.53;;;13.30;98.30;;;;;;5245032;22;20458;-82
2021/10/27 07:56:57;;;;;;;35.10;19.70;;;13.30;98.30;;;;;;5251994;22;20528;-82
2021/10/27 07:59:02;;;;;;;31.67;19.77;;;13.40;98.30;;;;;;5254700;22;20461;-80
2021/10/27 08:01:05;;;;;;;32.43;19.37;;;13.40;98.30;;;;;;5255774;22;20454;-81
2021/10/27 08:03:09;;;;;;;32.37;19.63;;;13.40;98.30;;;;;;5246749;22;20445;-81
2021/10/27 08:05:13;;;;;;;32.70;19.53;;;13.40;98.30;;;;;;5246813;22;20514;-82
2021/10/27 08:07:16;;;;;;;30.77;19.83;;;13.40;98.30;;;;;;5254530;22;20440;-81
2021/10/27 08:09:19;;;;;;;26.40;18.80;;;13.40;98.30;;;;;;5255974;22;20481;-82
2021/10/27 08:11:22;;;;;;;28.10;19.30;;;13.40;98.30;;;;;;5243774;22;20924;-81
2021/10/27 08:13:27;;;;;;;31.50;20.20;;;13.40;98.30;;;;;;5252720;22;20494;-82
2021/10/27 08:15:32;;;;;;;33.23;18.47;;;13.40;98.30;;;;;;5251068;22;20973;-82
2021/10/27 08:17:37;;;;;;;29.40;19.30;;;13.40;98.30;;;;;;5250703;22;20470;-84
2021/10/27 08:19:42;;;;;;;27.40;18.87;;;13.50;98.30;;;;;;5243189;22;20751;-82
2021/10/27 08:21:45;;;;;;;27.70;18.50;;;13.50;98.30;;;;;;5242603;22;20458;-85
2021/10/27 08:23:48;;;;;;;26.37;17.80;;;13.50;98.30;;;;;;5251158;22;20440;-83
2021/10/27 08:25:54;;;;;;;28.10;18.27;;;13.50;98.30;;;;;;5251106;22;20423;-83
2021/10/27 08:28:01;;;;;;;28.77;19.10;;;13.50;98.30;;;;;;5250562;22;20476;-83
2021/10/27 08:30:11;;;;;;;31.60;19.50;;;13.50;98.30;;;;;;5250750;22;20747;-84
2021/10/27 08:32:19;;;;;;;35.80;20.70;;;13.50;98.30;;;;;;5242570;22;20434;-83
2021/10/27 08:34:33;;;;;;;26.93;18.50;;;13.50;98.30;;;;;;5250991;22;20402;-83
2021/10/27 08:36:38;;;;;;;32.53;19.37;;;13.50;98.30;;;;;;5250843;22;20422;-83
2021/10/27 08:38:41;;;;;;;29.27;19.30;;;13.50;98.30;;;;;;5251461;22;20429;-84
2021/10/27 08:41:05;;;;;;;28.37;20.60;;;13.50;98.30;;;;;;5243501;22;20446;-83
2021/10/27 08:43:10;;;;;;;28.27;19.37;;;13.50;98.30;;;;;;5242948;22;21042;-83
2021/10/27 08:45:14;;;;;;;32.73;19.77;;;13.50;98.30;;;;;;5242766;22;20466;-83
2021/10/27 08:47:21;;;;;;;28.10;17.70;;;13.60;98.30;;;;;;5242141;22;20490;-83
2021/10/27 08:49:27;;;;;;;28.60;18.23;;;13.60;98.30;;;;;;5251522;22;20518;-83
2021/10/27 08:51:34;;;;;;;26.47;18.60;;;13.60;98.30;;;;;;5251587;22;20893;-84
2021/10/27 08:53:39;;;;;;;31.60;18.93;;;13.60;98.30;;;;;;5242945;22;20411;-84
2021/10/27 08:55:45;;;;;;;32.80;21.00;;;13.70;98.30;;;;;;5250626;22;20516;-84
2021/10/27 08:57:50;;;;;;;30.20;18.60;;;13.60;98.30;;;;;;5251580;22;20447;-83
2021/10/27 08:59:58;;;;;;;23.23;17.40;;;13.70;98.30;;;;;;5242275;22;20430;-84
2021/10/27 09:04:55;;;;;;;28.90;19.50;;;13.70;98.30;;;;;;5228640;22;20444;-84
2021/10/27 09:07:11;;;;;;;28.50;17.77;;;13.70;98.30;;;;;;5244206;22;20484;-83
2021/10/27 09:09:51;;;;;;;25.63;17.87;;;13.70;98.30;;;;;;5250753;22;20930;-84
2021/10/27 09:15:14;;;;;;;22.47;15.97;;;13.80;98.30;;;;;;5254437;22;20408;-82
2021/10/27 09:36:30;;;;;;;27.07;17.63;;;13.70;98.30;;;;;;5250699;22;20422;-83
2021/10/27 10:05:05;;;;;;;24.53;15.13;;;13.80;98.30;;;;;;5250569;22;20451;-82
2021/10/27 10:07:11;;;;;;;21.23;14.80;;;13.80;98.30;;;;;;5240949;22;20530;-81
2021/10/27 10:09:15;;;;;;;21.43;15.30;;;13.90;98.30;;;;;;5242199;22;20427;-81
2021/10/27 10:11:19;;;;;;;22.90;15.20;;;13.90;98.30;;;;;;5251729;22;20530;-80
2021/10/27 10:13:24;;;;;;;22.60;16.20;;;13.90;98.30;;;;;;5243178;22;20425;-83
2021/10/27 10:15:28;;;;;;;19.33;15.37;;;13.90;98.30;;;;;;5243576;22;20426;-83
2021/10/27 10:17:34;;;;;;;25.70;16.00;;;13.90;98.30;;;;;;5243160;22;20518;-83
2021/10/27 10:19:41;;;;;;;24.23;14.77;;;13.90;98.30;;;;;;5243711;22;20446;-83
2021/10/27 10:21:47;;;;;;;24.63;16.20;;;13.90;98.30;;;;;;5253200;22;20418;-84
2021/10/27 10:23:51;;;;;;;25.13;15.43;;;13.90;98.30;;;;;;5252365;22;20446;-85
2021/10/27 10:25:55;;;;;;;19.60;13.13;;;13.90;98.30;;;;;;5252286;22;20430;-84
2021/10/27 10:28:16;;;;;;;20.53;15.07;;;13.90;98.30;;;;;;5251423;22;20438;-84
2021/10/27 10:30:30;;;;;;;20.80;15.60;;;13.90;98.30;;;;;;5251236;22;20443;-84
2021/10/27 10:32:37;;;;;;;21.03;15.83;;;13.90;98.30;;;;;;5243962;22;20794;-84
2021/10/27 10:34:46;;;;;;;21.60;15.10;;;14.00;98.30;;;;;;5252297;22;20510;-83
2021/10/27 10:36:52;;;;;;;20.43;14.17;;;14.00;98.30;;;;;;5251749;22;20791;-84
2021/10/27 10:39:30;;;;;;;20.07;14.77;;;14.10;98.30;;;;;;5252506;22;20491;-83
2021/10/27 10:41:56;;;;;;;19.33;14.83;;;14.10;98.30;;;;;;5244399;22;20426;-85
2021/10/27 10:57:08;;;;;;;21.63;15.90;;;14.30;98.30;;;;;;5251806;22;20497;-84
2021/10/27 11:02:07;;;;;;;18.23;13.00;;;14.40;98.30;;;;;;5252887;22;20505;-84
2021/10/27 11:24:08;;;;;;;20.27;16.47;;;14.30;98.30;;;;;;5253817;22;20498;-84
2021/10/27 11:38:21;;;;;;;17.80;13.93;;;14.40;98.30;;;;;;5251581;22;20441;-84
2021/10/27 11:40:32;;;;;;;23.67;15.07;;;14.40;98.30;;;;;;5253249;22;20400;-83
2021/10/27 11:42:43;;;;;;;19.60;15.87;;;14.30;98.30;;;;;;5251766;22;20475;-83
2021/10/27 11:44:49;;;;;;;21.23;16.23;;;14.30;98.30;;;;;;5252584;22;20431;-84
2021/10/27 11:46:58;;;;;;;20.77;15.80;;;14.30;98.30;;;;;;5251968;22;20525;-84
2021/10/27 11:49:10;;;;;;;20.50;16.20;;;14.30;98.30;;;;;;5243939;22;20437;-83
2021/10/27 11:51:16;;;;;;;26.27;17.07;;;14.30;98.30;;;;;;5251439;22;20419;-85
2021/10/27 11:53:24;;;;;;;20.00;16.30;;;14.30;98.30;;;;;;5252086;22;20466;-84
2021/10/27 11:55:31;;;;;;;18.13;16.23;;;14.30;98.30;;;;;;5252685;22;20507;-85
2021/10/27 11:57:34;;;;;;;20.43;16.53;;;14.30;98.30;;;;;;5251808;22;20442;-84
2021/10/27 11:59:49;;;;;;;23.60;16.70;;;14.30;98.30;;;;;;5252352;22;20476;-84
2021/10/27 12:01:58;;;;;;;20.30;15.70;;;14.40;98.30;;;;;;5252372;22;20422;-84
2021/10/27 12:04:06;;;;;;;21.83;16.13;;;14.40;98.30;;;;;;5251317;22;20451;-85
2021/10/27 12:06:26;;;;;;;19.13;16.50;;;14.50;98.30;;;;;;5253701;22;20428;-84
2021/10/27 12:08:43;;;;;;;20.53;16.80;;;14.40;98.30;;;;;;5254241;22;20918;-82
2021/10/27 12:11:00;;;;;;;17.43;14.23;;;14.40;98.30;;;;;;5246844;22;20481;-84
2021/10/27 12:13:04;;;;;;;19.83;16.50;;;14.40;98.30;;;;;;5254026;22;20476;-84
2021/10/27 12:15:38;;;;;;;22.17;16.83;;;14.40;98.30;;;;;;5253212;22;20420;-84
2021/10/27 12:17:58;;;;;;;25.27;14.93;;;14.30;98.30;;;;;;5250581;22;20451;-84
2021/10/27 12:20:02;;;;;;;20.80;16.20;;;14.30;98.30;;;;;;5243628;22;20455;-83
2021/10/27 12:22:09;;;;;;;20.43;17.73;;;14.40;98.30;;;;;;5253449;22;20494;-84
2021/10/27 12:24:21;;;;;;;22.20;16.50;;;14.40;98.30;;;;;;5252358;22;20419;-84
2021/10/27 12:27:06;;;;;;;;;;;;;;;;;;;;;
2021/10/27 12:29:36;;;;;;;21.70;17.50;;;14.40;98.30;;;;;;5251964;22;20422;-85
2021/10/27 12:32:26;;;;;;;21.33;15.40;;;14.40;98.30;;;;;;5217800;22;20433;-83
2021/10/27 12:34:44;;;;;;;23.73;15.43;;;14.40;98.30;;;;;;5250898;22;20423;-84
2021/10/27 12:36:57;;;;;;;17.23;14.17;;;14.30;98.30;;;;;;5250632;22;20438;-84
2021/10/27 12:39:18;;;;;;;20.20;15.70;;;14.40;98.30;;;;;;5250816;22;20481;-84
2021/10/27 12:41:30;;;;;;;21.13;15.40;;;14.40;98.30;;;;;;5250989;22;21183;-85
2021/10/27 12:43:48;;;;;;;18.07;14.30;;;14.30;98.30;;;;;;5250924;22;20425;-84
2021/10/27 12:45:55;;;;;;;20.27;14.60;;;14.40;98.30;;;;;;5251019;22;20443;-84
2021/10/27 12:48:04;;;;;;;19.73;15.70;;;14.40;98.30;;;;;;5250340;22;20446;-85
2021/10/27 12:51:01;;;;;;;20.57;16.83;;;14.40;98.30;;;;;;5251899;22;20907;-84
2021/10/27 12:53:09;;;;;;;19.50;15.23;;;14.40;98.30;;;;;;5146793;23;20582;-84
2021/10/27 12:55:17;;;;;;;20.53;16.53;;;14.40;98.30;;;;;;5237945;22;20451;-84
2021/10/27 12:57:20;;;;;;;16.40;13.10;;;14.40;98.30;;;;;;5251467;22;20471;-84
2021/10/27 12:59:31;;;;;;;17.73;14.80;;;14.30;98.30;;;;;;5252370;22;20511;-84
2021/10/27 13:01:39;;;;;;;20.60;15.93;;;14.30;98.30;;;;;;5243219;22;20956;-84
2021/10/27 13:04:09;;;;;;;17.30;13.47;;;14.30;98.30;;;;;;5251725;22;20424;-84
2021/10/27 13:06:22;;;;;;;17.13;14.07;;;14.30;98.30;;;;;;5251580;22;20423;-84
2021/10/27 13:11:07;;;;;;;20.37;15.93;;;14.20;98.30;;;;;;5201795;22;20477;-84
2021/10/27 13:15:54;;;;;;;20.93;16.07;;;14.20;98.30;;;;;;5204476;22;20462;-84
2021/10/27 13:18:28;;;;;;;20.27;15.87;;;14.20;98.30;;;;;;5253971;22;20452;-84
2021/10/27 13:23:08;;;;;;;19.73;13.50;;;14.20;98.30;;;;;;5251831;22;20422;-84
2021/10/27 13:30:03;;;;;;;14.77;12.43;;;14.20;98.30;;;;;;5250887;22;20449;-84
2021/10/27 13:32:31;;;;;;;17.27;12.60;;;14.30;98.30;;;;;;5253221;22;20408;-83
2021/10/27 13:34:35;;;;;;;16.33;14.47;;;14.30;98.30;;;;;;5254175;22;20453;-83
2021/10/27 13:36:37;;;;;;;17.40;14.83;;;14.30;98.30;;;;;;5254546;22;20467;-82
2021/10/27 13:38:41;;;;;;;19.17;15.53;;;14.30;98.30;;;;;;5245853;22;20423;-84
2021/10/27 13:40:45;;;;;;;19.37;15.60;;;14.30;98.30;;;;;;5265359;22;20424;-82
2021/10/27 13:42:54;;;;;;;26.00;17.70;;;14.20;98.30;;;;;;5270032;22;20426;-81
2021/10/27 13:45:06;;;;;;;21.37;16.70;;;14.20;98.30;;;;;;5260672;22;20423;-82
2021/10/27 13:47:23;;;;;;;29.13;17.37;;;14.10;98.30;;;;;;5273357;22;20442;-81
2021/10/27 13:59:11;;;;;;;18.23;15.90;;;14.10;98.30;;;;;;5257944;22;20431;-80
2021/10/27 14:06:12;;;;;;;20.20;14.50;;;14.20;98.30;;;;;;5248915;22;20412;-80
2021/10/27 14:08:21;;;;;;;20.90;16.27;;;14.20;98.30;;;;;;5256718;22;20541;-80
2021/10/27 14:10:31;;;;;;;19.67;15.50;;;14.20;98.30;;;;;;5257981;22;20429;-80
2021/10/27 14:12:42;;;;;;;17.47;14.90;;;14.20;98.30;;;;;;5259367;22;20775;-80
2021/10/27 14:14:57;;;;;;;16.50;14.60;;;14.20;98.30;;;;;;5261290;22;20987;-80
2021/10/27 14:48:02;;;;;;;17.90;11.57;;;14.30;98.30;;;;;;5245340;22;20813;-82
2021/10/27 17:36:54;;;;;;;8.50;5.50;;;14.60;98.30;;;;;;4853782;24;21191;-83
2021/10/27 17:39:17;;;;;;;8.83;6.87;;;14.60;98.30;;;;;;4933376;23;20461;-83
2021/10/27 17:44:52;;;;;;;8.80;6.50;;;14.60;98.30;;;;;;5067645;23;20514;-84
